Capitol Logistics 238


TJSJ
Luis Munoz Marin International Airport
San Juan, PR
KMIA
Miami International Airport
Miami, US

Activity Log

Date Flight Route Aircraft Duration
10/12/2019 CPX238 ACONY3 PALDE FEKKO Y308 FOWEE FLIPR6 B763 2h 48m
06/19/2019 CPX238 ACONY3 PALDE FEKKO Y308 FOWEE FLIPR6 B763 2h 33m
06/06/2019 CPX238 ACONY3 PALDE FEKKO Y308 FOWEE FLIPR6 B763 2h 20m
04/06/2019 CPX238 ACONY3 PALDE FEKKO Y308 FOWEE FLIPR6 B763 2h 50m
02/17/2019 CPX238 ACONY3 PALDE FEKKO Y308 FOWEE FLIPR6 B763 2h 41m

Route Details

Aircraft Information
Primary: Boeing 767-300BDSF
Backup: Not Available
Route Data
Distance: 909nm
Sched. Duration: 2h 25m
Avg. Duration: 2h 38m (+14m)
Times Flown: 5
Recm'd Route: ACONY3 PALDE FEKKO Y308 FOWEE FLIPR6
Planned Altitude: 36,000ft
Origin Wx: TJSJ 281956Z 08009KT 10SM FEW040 SCT080 SCT100 27/24 A2986 RMK AO2 RAB24E55 SLP110 VCSH SE SW W VIS LWR SE SW W P0000 T02720239
Dest. Wx: KMIA 281953Z 13012KT 10SM SCT030 SCT250 31/23 A2997 RMK AO2 SLP148 T03060228
Notes:

Financial History
Total Freight: 416,558lbs
Average Load: 83,312lbs/flt
Fuel Used: 132,663lbs
Avg. Fuel Used: 26,533lbs/flt
Fuel Expense: $54,392
Avg. Fuel Expense: $10,878
Avg. Fuel Cost: $0.41/lbs
Total Gross Income: $545,691
Pilot Pay: $825
Total Expenses: $59,195
Total Revenue: $428,966
Average Revenue: $109,138.20